Pawleys Island, South Carolina
Current Conditions -  °F | °C
As of 7:35 PM on Saturday 25 Oct 2014 (Local Time) from KGGE Reporting Station
Clear Clear  
Wind Chill: 55°   Ceiling: Unl
Heat Index: 55°   Visibility: 10mi
Dew Point: 52°   Wind: 0mph
Humidity: 88%   Direction: NA
Pressure: 29.97"   Gusts: NA
Location:  33.43°N, 79.12°W
Report Text: KGGE 252335Z AUTO 00000KT 10SM CLR 13/11 A2997 RMK AO2
Loading
Personal Weather Stations






























Interactive Weather Map
Tropical Storm Tracking
New forecast layout! Learn more

10-Day Weather Forecast

Advertisements
Track Severe Weather on mobile